createdAt,value
2019-01-14T00:00:55.593Z,7.85
2019-01-14T00:01:55.716Z,7.76
2019-01-14T00:02:55.425Z,7.84
2019-01-14T00:03:55.353Z,7.88
2019-01-14T00:04:55.781Z,7.92
2019-01-14T00:05:55.160Z,7.88
2019-01-14T00:06:55.079Z,7.91
2019-01-14T00:07:55.142Z,7.82
2019-01-14T00:08:54.926Z,7.77
2019-01-14T00:09:54.821Z,7.73
2019-01-14T00:10:54.754Z,7.67
2019-01-14T00:11:54.647Z,7.62
2019-01-14T00:12:54.563Z,7.62
2019-01-14T00:13:54.611Z,7.48
2019-01-14T00:14:54.396Z,7.52
2019-01-14T00:15:54.305Z,7.48
2019-01-14T00:16:54.641Z,7.52
2019-01-14T00:17:54.134Z,7.36
2019-01-14T00:18:54.227Z,7.42
2019-01-14T00:19:53.963Z,7.33
2019-01-14T00:20:54.002Z,7.32
2019-01-14T00:21:53.791Z,7.33
2019-01-14T00:22:53.707Z,7.33
2019-01-14T00:23:53.849Z,7.34
2019-01-14T00:24:53.540Z,7.41
2019-01-14T00:25:53.452Z,7.32
2019-01-14T00:26:53.428Z,7.41
2019-01-14T00:27:53.280Z,7.32
2019-01-14T00:28:53.227Z,7.32
2019-01-14T00:29:53.244Z,7.24
2019-01-14T00:30:53.030Z,7.19
2019-01-14T00:31:52.937Z,7.21
2019-01-14T00:32:53.055Z,7.18
2019-01-14T00:33:52.763Z,7.18
2019-01-14T00:34:52.895Z,7.19
2019-01-14T00:35:52.595Z,7.27
2019-01-14T00:36:52.506Z,7.26
2019-01-14T00:37:52.473Z,7.33
2019-01-14T00:38:52.344Z,7.24
2019-01-14T00:39:52.269Z,7.26
2019-01-14T00:40:52.289Z,7.30
2019-01-14T00:41:52.080Z,7.26
2019-01-14T00:42:51.993Z,7.33
2019-01-14T00:43:52.106Z,7.27
2019-01-14T00:44:51.834Z,7.23
2019-01-14T00:45:51.911Z,7.12
2019-01-14T00:46:51.649Z,7.18
2019-01-14T00:47:51.569Z,7.11
2019-01-14T00:48:51.522Z,7.09
2019-01-14T00:49:51.410Z,7.08
2019-01-14T00:50:51.318Z,7.05
2019-01-14T00:51:51.337Z,7.08
2019-01-14T00:52:51.139Z,7.05
2019-01-14T00:53:51.147Z,7.09
2019-01-14T00:54:50.978Z,7.07
2019-01-14T00:55:50.954Z,7.04
2019-01-14T00:56:50.793Z,6.96
2019-01-14T00:57:50.715Z,6.97
2019-01-14T00:58:50.769Z,6.94
2019-01-14T00:59:50.556Z,7.00
2019-01-14T01:00:50.449Z,7.04
2019-01-14T01:01:50.380Z,7.05
2019-01-14T01:02:50.284Z,6.96
2019-01-14T01:03:50.196Z,7.01
2019-01-14T01:04:50.228Z,7.11
2019-01-14T01:05:50.026Z,7.04
2019-01-14T01:06:49.935Z,7.00
2019-01-14T01:07:50.010Z,7.09
2019-01-14T01:08:49.766Z,7.04
2019-01-14T01:09:49.692Z,7.09
2019-01-14T01:10:49.623Z,7.07
2019-01-14T01:11:49.506Z,6.97
2019-01-14T01:12:49.420Z,7.01
2019-01-14T01:13:49.436Z,7.04
2019-01-14T01:14:49.271Z,7.08
2019-01-14T01:15:49.162Z,7.04
2019-01-14T01:16:49.257Z,7.01
2019-01-14T01:17:48.995Z,7.01
2019-01-14T01:18:49.076Z,7.05
2019-01-14T01:19:48.872Z,6.99
2019-01-14T01:20:48.876Z,7.01
2019-01-14T01:21:48.656Z,7.09
2019-01-14T01:22:48.676Z,6.94
2019-01-14T01:23:48.483Z,6.99
2019-01-14T01:24:48.485Z,7.04
2019-01-14T01:25:48.324Z,7.07
2019-01-14T01:26:48.292Z,7.04
2019-01-14T01:27:48.150Z,7.04
2019-01-14T01:28:48.107Z,6.99
2019-01-14T01:29:47.967Z,7.04
2019-01-14T01:30:47.942Z,7.05
2019-01-14T01:31:47.792Z,6.99
2019-01-14T01:32:47.711Z,7.01
2019-01-14T01:33:47.725Z,6.99
2019-01-14T01:34:47.542Z,6.97
2019-01-14T01:35:47.466Z,7.01
2019-01-14T01:36:47.542Z,7.05
2019-01-14T01:37:47.287Z,6.94
2019-01-14T01:38:47.201Z,6.93
2019-01-14T01:39:47.158Z,6.96
2019-01-14T01:40:47.042Z,6.93
2019-01-14T01:41:46.938Z,6.96
2019-01-14T01:42:46.966Z,6.97
2019-01-14T01:43:46.769Z,6.93
2019-01-14T01:44:46.780Z,6.99
2019-01-14T01:45:46.614Z,6.99
2019-01-14T01:46:46.582Z,6.94
2019-01-14T01:47:46.427Z,6.94
2019-01-14T01:48:46.338Z,6.96
2019-01-14T01:49:46.251Z,7.08
2019-01-14T01:50:46.237Z,7.08
2019-01-14T01:51:46.081Z,7.08
2019-01-14T01:52:45.999Z,7.08
2019-01-14T01:53:46.016Z,7.09
2019-01-14T01:54:45.823Z,7.16
2019-01-14T01:55:45.764Z,7.16
2019-01-14T01:56:45.833Z,7.26
2019-01-14T01:57:45.567Z,7.24
2019-01-14T01:58:45.480Z,7.26
2019-01-14T01:59:45.440Z,7.33
2019-01-14T02:00:45.331Z,7.39
2019-01-14T02:01:45.248Z,7.37
2019-01-14T02:02:45.141Z,7.23
2019-01-14T02:03:45.058Z,7.33
2019-01-14T02:04:45.068Z,7.41
2019-01-14T02:05:44.898Z,7.30
2019-01-14T02:06:44.795Z,7.27
2019-01-14T02:07:44.883Z,7.37
2019-01-14T02:08:44.628Z,7.37
2019-01-14T02:09:44.548Z,7.33
2019-01-14T02:10:44.520Z,7.37
2019-01-14T02:11:44.372Z,7.36
2019-01-14T02:12:44.284Z,7.36
2019-01-14T02:13:44.304Z,7.34
2019-01-14T02:14:44.109Z,7.34
2019-01-14T02:15:44.114Z,7.33
2019-01-14T02:16:43.953Z,7.34
2019-01-14T02:17:43.924Z,7.42
2019-01-14T02:18:43.766Z,7.44
2019-01-14T02:19:43.731Z,7.47
2019-01-14T02:20:43.604Z,7.47
2019-01-14T02:21:43.580Z,7.44
2019-01-14T02:22:43.431Z,7.47
2019-01-14T02:23:43.341Z,7.47
2019-01-14T02:24:43.356Z,7.37
2019-01-14T02:25:43.170Z,7.45
2019-01-14T02:26:43.097Z,7.48
2019-01-14T02:27:43.166Z,7.50
2019-01-14T02:28:42.923Z,7.60
2019-01-14T02:29:42.827Z,7.66
2019-01-14T02:30:42.778Z,7.66
2019-01-14T02:31:42.674Z,7.66
2019-01-14T02:32:42.583Z,7.57
2019-01-14T02:33:42.595Z,7.66
2019-01-14T02:34:42.405Z,7.66
2019-01-14T02:35:42.314Z,7.60
2019-01-14T02:36:48.361Z,7.60
2019-01-14T02:37:42.145Z,7.57
2019-01-14T02:38:42.055Z,7.51
2019-01-14T02:39:42.017Z,7.54
2019-01-14T02:40:41.887Z,7.58
2019-01-14T02:41:41.859Z,7.58
2019-01-14T02:42:41.711Z,7.55
2019-01-14T02:43:41.625Z,7.57
2019-01-14T02:44:41.641Z,7.55
2019-01-14T02:45:41.460Z,7.51
2019-01-14T02:46:41.380Z,7.44
2019-01-14T02:47:41.459Z,7.45
2019-01-14T02:48:41.209Z,7.57
2019-01-14T02:49:41.116Z,7.48
2019-01-14T02:50:41.070Z,7.37
2019-01-14T02:51:40.954Z,7.47
2019-01-14T02:52:40.881Z,7.44
2019-01-14T02:53:40.766Z,7.45
2019-01-14T02:54:40.681Z,7.48
2019-01-14T02:55:40.691Z,7.50
2019-01-14T02:56:40.552Z,7.50
2019-01-14T02:57:40.424Z,7.52
2019-01-14T02:58:40.507Z,7.55
2019-01-14T02:59:40.254Z,7.47
2019-01-14T03:00:40.314Z,7.48
2019-01-14T03:01:40.081Z,7.47
2019-01-14T03:02:40.161Z,7.52
2019-01-14T03:03:39.911Z,7.48
2019-01-14T03:04:39.934Z,7.44
2019-01-14T03:05:39.739Z,7.48
2019-01-14T03:06:39.739Z,7.54
2019-01-14T03:07:39.587Z,7.45
2019-01-14T03:08:39.549Z,7.55
2019-01-14T03:09:39.396Z,7.62
2019-01-14T03:10:39.356Z,7.54
2019-01-14T03:11:39.224Z,7.54
2019-01-14T03:12:39.206Z,7.51
2019-01-14T03:13:39.061Z,7.50
2019-01-14T03:14:39.179Z,7.54
2019-01-14T03:15:38.887Z,7.55
2019-01-14T03:16:38.993Z,7.55
2019-01-14T03:17:38.735Z,7.55
2019-01-14T03:18:38.795Z,7.60
2019-01-14T03:19:38.542Z,7.57
2019-01-14T03:20:38.605Z,7.63
2019-01-14T03:21:38.370Z,7.60
2019-01-14T03:22:38.449Z,7.57
2019-01-14T03:23:38.203Z,7.63
2019-01-14T03:24:38.232Z,7.52
2019-01-14T03:25:38.027Z,7.55
2019-01-14T03:26:38.029Z,7.57
2019-01-14T03:27:37.877Z,7.63
2019-01-14T03:28:37.843Z,7.63
2019-01-14T03:29:37.694Z,7.73
2019-01-14T03:30:37.606Z,7.66
2019-01-14T03:31:37.659Z,7.70
2019-01-14T03:32:37.445Z,7.66
2019-01-14T03:33:37.344Z,7.67
2019-01-14T03:34:37.467Z,7.60
2019-01-14T03:35:37.178Z,7.63
2019-01-14T03:36:37.279Z,7.67
2019-01-14T03:37:37.015Z,7.62
2019-01-14T03:38:37.088Z,7.54
2019-01-14T03:39:36.843Z,7.51
2019-01-14T03:40:36.903Z,7.58
2019-01-14T03:41:36.665Z,7.58
2019-01-14T03:42:36.739Z,7.54
2019-01-14T03:43:36.488Z,7.51
2019-01-14T03:44:36.511Z,7.55
2019-01-14T03:45:36.316Z,7.66
2019-01-14T03:46:36.322Z,7.60
2019-01-14T03:47:36.170Z,7.67
2019-01-14T03:48:36.131Z,7.63
2019-01-14T03:49:35.979Z,7.62
2019-01-14T03:50:35.936Z,7.60
2019-01-14T03:51:35.813Z,7.58
2019-01-14T03:52:35.749Z,7.62
2019-01-14T03:53:35.649Z,7.66
2019-01-14T03:54:35.548Z,7.57
2019-01-14T03:55:35.560Z,7.55
2019-01-14T03:56:35.389Z,7.52
2019-01-14T03:57:35.294Z,7.47
2019-01-14T03:58:35.407Z,7.57
2019-01-14T03:59:35.124Z,7.52
2019-01-14T04:00:35.052Z,7.45
2019-01-14T04:01:34.995Z,7.44
2019-01-14T04:02:34.873Z,7.45
2019-01-14T04:03:34.821Z,7.41
2019-01-14T04:04:34.814Z,7.44
2019-01-14T04:05:34.611Z,7.36
2019-01-14T04:06:34.525Z,7.39
2019-01-14T04:07:34.613Z,7.26
2019-01-14T04:08:34.366Z,7.41
2019-01-14T04:09:34.267Z,7.23
2019-01-14T04:10:34.227Z,7.26
2019-01-14T04:11:34.096Z,7.29
2019-01-14T04:12:34.036Z,7.30
2019-01-14T04:13:33.940Z,7.24
2019-01-14T04:14:34.054Z,7.26
2019-01-14T04:15:33.753Z,7.19
2019-01-14T04:16:33.856Z,7.21
2019-01-14T04:17:33.580Z,7.19
2019-01-14T04:18:33.703Z,7.26
2019-01-14T04:19:33.417Z,7.23
2019-01-14T04:20:33.323Z,7.26
2019-01-14T04:21:33.272Z,7.29
2019-01-14T04:22:33.153Z,7.24
2019-01-14T04:23:33.071Z,7.29
2019-01-14T04:24:33.126Z,7.33
2019-01-14T04:25:32.896Z,7.24
2019-01-14T04:26:32.907Z,7.23
2019-01-14T04:27:32.726Z,7.29
2019-01-14T04:28:32.710Z,7.24
2019-01-14T04:29:32.568Z,7.30
2019-01-14T04:30:32.516Z,7.34
2019-01-14T04:31:32.380Z,7.23
2019-01-14T04:32:32.323Z,7.33
2019-01-14T04:33:32.212Z,7.33
2019-01-14T04:34:32.141Z,7.36
2019-01-14T04:35:32.165Z,7.33
2019-01-14T04:36:31.954Z,7.32
2019-01-14T04:37:31.867Z,7.36
2019-01-14T04:38:31.955Z,7.32
2019-01-14T04:39:31.734Z,7.34
2019-01-14T04:40:31.610Z,7.34
2019-01-14T04:41:31.566Z,7.37
2019-01-14T04:42:31.442Z,7.32
2019-01-14T04:43:31.355Z,7.41
2019-01-14T04:44:31.384Z,7.41
2019-01-14T04:45:31.200Z,7.36
2019-01-14T04:46:31.099Z,7.44
2019-01-14T04:47:31.196Z,7.36
2019-01-14T04:48:30.926Z,7.30
2019-01-14T04:49:30.841Z,7.42
2019-01-14T04:50:30.842Z,7.41
2019-01-14T04:51:30.671Z,7.34
2019-01-14T04:52:30.585Z,7.41
2019-01-14T04:53:30.625Z,7.33
2019-01-14T04:54:30.416Z,7.41
2019-01-14T04:55:30.347Z,7.41
2019-01-14T04:56:30.449Z,7.34
2019-01-14T04:57:30.162Z,7.41
2019-01-14T04:58:30.242Z,7.39
2019-01-14T04:59:29.991Z,7.36
2019-01-14T05:00:29.920Z,7.37
2019-01-14T05:01:29.854Z,7.39
2019-01-14T05:02:29.768Z,7.37
2019-01-14T05:03:29.640Z,7.37
2019-01-14T05:04:29.682Z,7.34
2019-01-14T05:05:29.505Z,7.32
2019-01-14T05:06:29.393Z,7.23
2019-01-14T05:07:29.941Z,7.26
2019-01-14T05:08:29.216Z,7.26
2019-01-14T05:09:29.130Z,7.26
2019-01-14T05:10:29.098Z,7.26
2019-01-14T05:11:28.970Z,7.16
2019-01-14T05:12:28.904Z,7.21
2019-01-14T05:13:28.789Z,7.15
2019-01-14T05:14:28.916Z,7.23
2019-01-14T05:15:28.621Z,7.18
2019-01-14T05:16:28.765Z,7.18
2019-01-14T05:17:28.448Z,7.11
2019-01-14T05:18:28.548Z,7.14
2019-01-14T05:19:28.286Z,7.08
2019-01-14T05:20:28.342Z,7.11
2019-01-14T05:21:28.118Z,7.04
2019-01-14T05:22:28.025Z,7.04
2019-01-14T05:23:27.934Z,7.09
2019-01-14T05:24:27.865Z,7.04
2019-01-14T05:25:27.762Z,7.01
2019-01-14T05:26:27.689Z,7.08
2019-01-14T05:27:27.603Z,7.05
2019-01-14T05:28:27.515Z,7.05
2019-01-14T05:29:27.420Z,7.07
2019-01-14T05:30:27.338Z,7.04
2019-01-14T05:31:27.267Z,7.08
2019-01-14T05:32:27.159Z,7.08
2019-01-14T05:33:27.201Z,7.07
2019-01-14T05:34:26.995Z,7.12
2019-01-14T05:35:26.902Z,7.11
2019-01-14T05:36:26.874Z,7.08
2019-01-14T05:37:26.737Z,7.09
2019-01-14T05:38:26.647Z,7.12
2019-01-14T05:39:27.579Z,7.14
2019-01-14T05:40:26.472Z,7.15
2019-01-14T05:41:26.388Z,7.09
2019-01-14T05:42:26.410Z,7.11
2019-01-14T05:43:26.224Z,7.15
2019-01-14T05:44:27.215Z,7.18
2019-01-14T05:45:26.048Z,7.18
2019-01-14T05:46:25.961Z,7.12
2019-01-14T05:47:25.909Z,7.18
2019-01-14T05:48:25.899Z,7.18
2019-01-14T05:49:25.710Z,7.18
2019-01-14T05:50:25.618Z,7.15
2019-01-14T05:51:25.532Z,7.15
2019-01-14T05:52:25.519Z,7.18
2019-01-14T05:53:25.378Z,7.26
2019-01-14T05:54:25.277Z,7.19
2019-01-14T05:55:25.300Z,7.27
2019-01-14T05:56:25.106Z,7.24
2019-01-14T05:57:25.019Z,7.32
2019-01-14T05:58:24.961Z,7.21
2019-01-14T05:59:24.848Z,7.30
2019-01-14T06:00:24.767Z,7.27
2019-01-14T06:01:24.692Z,7.30
2019-01-14T06:02:24.605Z,7.26
2019-01-14T06:03:24.528Z,7.26
2019-01-14T06:04:24.422Z,7.21
2019-01-14T06:05:24.545Z,7.21
2019-01-14T06:06:24.249Z,7.29
2019-01-14T06:07:24.168Z,7.24
2019-01-14T06:08:24.191Z,7.26
2019-01-14T06:09:23.992Z,7.32
2019-01-14T06:10:23.911Z,7.23
2019-01-14T06:11:23.968Z,7.26
2019-01-14T06:12:23.740Z,7.24
2019-01-14T06:13:23.809Z,7.26
2019-01-14T06:14:23.574Z,7.29
2019-01-14T06:15:23.609Z,7.18
2019-01-14T06:16:23.392Z,7.16
2019-01-14T06:17:23.309Z,7.21
2019-01-14T06:18:23.431Z,7.18
2019-01-14T06:19:23.135Z,7.15
2019-01-14T06:20:23.049Z,7.14
2019-01-14T06:21:23.010Z,7.16
2019-01-14T06:22:22.884Z,7.12
2019-01-14T06:23:22.851Z,7.15
2019-01-14T06:24:22.756Z,7.12
2019-01-14T06:25:22.831Z,7.15
2019-01-14T06:26:22.545Z,7.15
2019-01-14T06:27:22.454Z,7.21
2019-01-14T06:28:22.683Z,7.16
2019-01-14T06:29:22.286Z,7.21
2019-01-14T06:30:22.192Z,7.16
2019-01-14T06:31:23.125Z,7.19
2019-01-14T06:32:22.047Z,7.15
2019-01-14T06:33:21.937Z,7.19
2019-01-14T06:34:21.949Z,7.11
2019-01-14T06:35:21.771Z,7.14
2019-01-14T06:36:21.684Z,7.09
2019-01-14T06:37:21.633Z,7.07
2019-01-14T06:38:21.511Z,7.05
2019-01-14T06:39:21.437Z,7.11
2019-01-14T06:40:21.343Z,7.16
2019-01-14T06:41:21.262Z,7.14
2019-01-14T06:42:21.177Z,7.15
2019-01-14T06:43:21.096Z,7.18
2019-01-14T06:44:21.011Z,7.15
2019-01-14T06:45:20.918Z,7.12
2019-01-14T06:46:20.830Z,7.11
2019-01-14T06:47:20.751Z,7.21
2019-01-14T06:48:20.653Z,7.14
2019-01-14T06:49:20.608Z,7.11
2019-01-14T06:50:20.487Z,7.09
2019-01-14T06:51:20.407Z,7.16
2019-01-14T06:52:20.311Z,7.15
2019-01-14T06:53:20.234Z,7.18
2019-01-14T06:54:20.149Z,7.16
2019-01-14T06:55:20.082Z,7.14
2019-01-14T06:56:19.967Z,7.14
2019-01-14T06:57:19.888Z,7.21
2019-01-14T06:58:19.811Z,7.19
2019-01-14T06:59:19.720Z,7.23
2019-01-14T07:00:19.640Z,7.27
2019-01-14T07:01:19.547Z,7.24
2019-01-14T07:02:19.458Z,7.32
2019-01-14T07:03:19.489Z,7.19
2019-01-14T07:04:19.290Z,7.27
2019-01-14T07:05:19.215Z,7.23
2019-01-14T07:06:19.111Z,7.26
2019-01-14T07:07:19.034Z,7.23
2019-01-14T07:08:18.939Z,7.26
2019-01-14T07:09:18.866Z,7.27
2019-01-14T07:10:18.801Z,7.24
2019-01-14T07:11:18.686Z,7.37
2019-01-14T07:12:18.624Z,7.26
2019-01-14T07:13:18.527Z,7.29
2019-01-14T07:14:18.428Z,7.24
2019-01-14T07:15:18.359Z,6.99
2019-01-14T07:16:18.268Z,6.69
2019-01-14T07:17:18.176Z,6.55
2019-01-14T07:18:18.099Z,6.42
2019-01-14T07:19:17.998Z,6.38
2019-01-14T07:20:17.942Z,6.30
2019-01-14T07:21:17.829Z,6.21
2019-01-14T07:22:17.748Z,6.20
2019-01-14T07:23:17.663Z,6.11
2019-01-14T07:24:17.591Z,6.11
2019-01-14T07:25:17.498Z,6.06
2019-01-14T07:26:17.404Z,5.96
2019-01-14T07:27:17.327Z,5.98
2019-01-14T07:28:17.235Z,5.84
2019-01-14T07:29:17.140Z,5.93
2019-01-14T07:30:17.083Z,5.85
2019-01-14T07:31:16.983Z,5.84
2019-01-14T07:32:16.889Z,5.87
2019-01-14T07:33:16.799Z,5.80
2019-01-14T07:34:16.728Z,5.78
2019-01-14T07:35:16.630Z,5.81
2019-01-14T07:36:16.561Z,5.78
2019-01-14T07:37:16.450Z,5.80
2019-01-14T07:38:16.364Z,5.80
2019-01-14T07:39:16.287Z,5.75
2019-01-14T07:40:16.199Z,5.66
2019-01-14T07:41:16.120Z,5.75
2019-01-14T07:42:16.032Z,5.74
2019-01-14T07:43:15.930Z,5.69
2019-01-14T07:44:15.852Z,5.69
2019-01-14T07:45:15.764Z,5.77
2019-01-14T07:46:15.701Z,5.73
2019-01-14T07:47:15.587Z,5.65
2019-01-14T07:48:15.505Z,5.70
2019-01-14T07:49:15.427Z,5.70
2019-01-14T07:50:15.327Z,5.67
2019-01-14T07:51:15.256Z,5.70
2019-01-14T07:52:15.160Z,5.84
2019-01-14T07:53:15.069Z,5.81
2019-01-14T07:54:14.994Z,5.83
2019-01-14T07:55:14.900Z,5.81
2019-01-14T07:56:14.834Z,5.83
2019-01-14T07:57:14.724Z,5.80
2019-01-14T07:58:14.640Z,5.85
2019-01-14T07:59:14.554Z,5.70
2019-01-14T08:00:14.468Z,5.74
2019-01-14T08:01:14.391Z,5.78
2019-01-14T08:02:14.306Z,5.75
2019-01-14T08:03:14.205Z,5.84
2019-01-14T08:04:14.115Z,5.70
2019-01-14T08:05:14.036Z,5.80
2019-01-14T08:06:13.977Z,5.84
2019-01-14T08:07:13.869Z,5.78
2019-01-14T08:08:14.338Z,5.80
2019-01-14T08:09:13.695Z,5.78
2019-01-14T08:10:13.607Z,5.77
2019-01-14T08:11:13.530Z,5.87
2019-01-14T08:12:13.435Z,5.90
2019-01-14T08:13:13.343Z,5.92
2019-01-14T08:14:14.254Z,5.83
2019-01-14T08:15:13.170Z,5.78
2019-01-14T08:16:13.117Z,5.87
2019-01-14T08:17:13.022Z,5.92
2019-01-14T08:18:12.925Z,5.87
2019-01-14T08:19:12.836Z,5.74
2019-01-14T08:20:12.739Z,5.81
2019-01-14T08:21:12.657Z,5.87
2019-01-14T08:22:12.599Z,5.84
2019-01-14T08:23:12.489Z,5.84
2019-01-14T08:24:12.419Z,5.80
2019-01-14T08:25:12.315Z,5.77
2019-01-14T08:26:12.229Z,5.80
2019-01-14T08:27:12.151Z,5.87
2019-01-14T08:28:12.052Z,5.77
2019-01-14T08:29:11.978Z,5.78
2019-01-14T08:30:11.881Z,5.77
2019-01-14T08:31:11.798Z,5.84
2019-01-14T08:32:11.735Z,5.84
2019-01-14T08:33:11.621Z,5.74
2019-01-14T08:34:11.537Z,5.81
2019-01-14T08:35:11.453Z,5.70
2019-01-14T08:36:11.372Z,5.70
2019-01-14T08:37:11.292Z,5.84
2019-01-14T08:38:11.199Z,5.85
2019-01-14T08:39:11.112Z,5.80
2019-01-14T08:40:11.024Z,5.77
2019-01-14T08:41:10.943Z,5.77
2019-01-14T08:42:10.879Z,5.81
2019-01-14T08:43:10.766Z,5.73
2019-01-14T08:44:10.678Z,5.84
2019-01-14T08:45:10.592Z,5.80
2019-01-14T08:46:10.502Z,5.78
2019-01-14T08:47:10.571Z,5.84
2019-01-14T08:48:10.325Z,5.77
2019-01-14T08:49:10.243Z,5.73
2019-01-14T08:50:10.162Z,5.84
2019-01-14T08:51:10.068Z,5.90
2019-01-14T08:52:09.982Z,5.85
2019-01-14T08:53:09.976Z,5.96
2019-01-14T08:54:09.812Z,5.96
2019-01-14T08:55:09.731Z,5.95
2019-01-14T08:56:09.641Z,6.02
2019-01-14T08:57:09.559Z,6.01
2019-01-14T08:58:09.503Z,6.06
2019-01-14T08:59:09.383Z,6.13
2019-01-14T09:00:09.307Z,6.17
2019-01-14T09:01:09.220Z,6.17
2019-01-14T09:02:09.123Z,6.17
2019-01-14T09:03:09.057Z,6.25
2019-01-14T09:04:08.953Z,6.20
2019-01-14T09:05:08.876Z,6.28
2019-01-14T09:06:08.788Z,6.30
2019-01-14T09:07:08.701Z,6.32
2019-01-14T09:08:08.628Z,6.28
2019-01-14T09:09:08.523Z,6.36
2019-01-14T09:10:08.450Z,6.45
2019-01-14T09:11:08.352Z,6.45
2019-01-14T09:12:08.273Z,6.40
2019-01-14T09:13:08.200Z,6.38
2019-01-14T09:14:08.112Z,6.35
2019-01-14T09:15:08.012Z,6.36
2019-01-14T09:16:07.934Z,6.36
2019-01-14T09:17:07.843Z,6.45
2019-01-14T09:18:07.774Z,6.50
2019-01-14T09:19:07.667Z,6.55
2019-01-14T09:20:07.581Z,6.55
2019-01-14T09:21:07.518Z,6.53
2019-01-14T09:22:07.418Z,6.68
2019-01-14T09:23:07.344Z,6.63
2019-01-14T09:24:07.249Z,6.55
2019-01-14T09:25:07.175Z,6.55
2019-01-14T09:26:07.079Z,6.57
2019-01-14T09:27:06.992Z,6.69
2019-01-14T09:28:06.920Z,6.78
2019-01-14T09:29:06.824Z,6.78
2019-01-14T09:30:06.729Z,6.86
2019-01-14T09:31:06.653Z,6.94
2019-01-14T09:32:06.566Z,6.90
2019-01-14T09:33:06.498Z,6.99
2019-01-14T09:34:06.393Z,6.83
2019-01-14T09:35:06.316Z,6.93
2019-01-14T09:36:06.225Z,6.97
2019-01-14T09:37:06.139Z,7.04
2019-01-14T09:38:06.056Z,7.24
2019-01-14T09:39:05.984Z,7.48
2019-01-14T09:40:05.883Z,7.62
2019-01-14T09:41:05.795Z,7.48
2019-01-14T09:42:05.709Z,7.70
2019-01-14T09:43:05.637Z,8.00
2019-01-14T09:44:05.559Z,8.09
2019-01-14T09:45:05.460Z,8.27
2019-01-14T09:46:05.378Z,8.29
2019-01-14T09:47:05.282Z,8.13
2019-01-14T09:48:05.202Z,8.14
2019-01-14T09:49:05.138Z,7.96
2019-01-14T09:50:05.028Z,8.07
2019-01-14T09:51:04.953Z,7.89
2019-01-14T09:52:04.860Z,8.09
2019-01-14T09:53:04.781Z,7.92
2019-01-14T09:54:04.704Z,8.12
2019-01-14T09:55:05.845Z,8.45
2019-01-14T09:56:04.533Z,8.39
2019-01-14T09:57:04.434Z,8.18
2019-01-14T09:58:04.352Z,8.17
2019-01-14T09:59:04.297Z,8.36
2019-01-14T10:00:04.181Z,8.49
2019-01-14T10:01:04.109Z,8.68
2019-01-14T10:02:04.017Z,8.47
2019-01-14T10:03:03.939Z,8.07
2019-01-14T10:04:03.845Z,7.74
2019-01-14T10:05:03.784Z,7.58
2019-01-14T10:06:03.683Z,7.62
2019-01-14T10:07:03.603Z,7.55
2019-01-14T10:08:03.511Z,7.41
2019-01-14T10:09:03.985Z,7.41
2019-01-14T10:10:03.758Z,7.34
2019-01-14T10:11:03.267Z,7.36
2019-01-14T10:12:03.189Z,7.41
2019-01-14T10:13:03.106Z,7.34
2019-01-14T10:14:02.998Z,7.24
2019-01-14T10:15:02.942Z,7.19
2019-01-14T10:16:02.853Z,7.07
2019-01-14T10:17:02.761Z,6.99
2019-01-14T10:18:02.666Z,7.47
2019-01-14T10:19:02.582Z,7.92
2019-01-14T10:20:02.523Z,7.92
2019-01-14T10:21:02.424Z,8.29
2019-01-14T10:22:02.328Z,8.42
2019-01-14T10:23:02.248Z,8.12
2019-01-14T10:24:02.159Z,8.06
2019-01-14T10:25:02.072Z,7.99
2019-01-14T10:26:02.013Z,7.73
2019-01-14T10:27:01.901Z,8.03
2019-01-14T10:28:02.129Z,8.25
2019-01-14T10:29:01.742Z,8.43
2019-01-14T10:30:01.649Z,8.57
2019-01-14T10:31:01.575Z,8.76
2019-01-14T10:32:01.488Z,8.70
2019-01-14T10:33:01.396Z,8.78
2019-01-14T10:34:01.304Z,8.85
2019-01-14T10:35:01.236Z,8.64
2019-01-14T10:36:01.154Z,8.52
2019-01-14T10:37:01.053Z,8.42
2019-01-14T10:38:01.980Z,8.47
2019-01-14T10:39:00.884Z,8.47
2019-01-14T10:40:00.807Z,8.31
2019-01-14T10:41:00.746Z,8.37
2019-01-14T10:42:04.952Z,8.28
2019-01-14T10:43:00.561Z,8.10
2019-01-14T10:44:00.464Z,8.06
2019-01-14T10:45:00.386Z,7.74
2019-01-14T10:46:00.318Z,7.42
2019-01-14T10:47:00.218Z,6.82
2019-01-14T10:48:00.130Z,6.65
2019-01-14T10:49:00.060Z,6.61
2019-01-14T10:49:59.961Z,6.58
2019-01-14T10:50:59.905Z,6.54
2019-01-14T10:51:59.795Z,6.46
2019-01-14T10:52:59.722Z,6.45
2019-01-14T10:53:59.626Z,6.55
2019-01-14T10:54:59.555Z,6.55
2019-01-14T10:55:59.467Z,6.58
2019-01-14T10:56:59.375Z,6.58
2019-01-14T10:57:59.294Z,6.58
2019-01-14T10:58:59.200Z,6.72
2019-01-14T10:59:59.120Z,6.71
2019-01-14T11:00:59.045Z,6.71
2019-01-14T11:01:58.939Z,6.65
2019-01-14T11:02:58.870Z,6.68
2019-01-14T11:03:58.774Z,6.69
2019-01-14T11:04:58.694Z,6.69
2019-01-14T11:05:58.612Z,6.76
2019-01-14T11:06:58.530Z,6.61
2019-01-14T11:07:58.434Z,6.54
2019-01-14T11:09:05.705Z,6.58
2019-01-14T11:09:58.264Z,6.69
2019-01-14T11:10:58.364Z,6.79
2019-01-14T11:11:58.088Z,6.94
2019-01-14T11:12:58.029Z,7.04
2019-01-14T11:13:57.925Z,7.16
2019-01-14T11:15:02.750Z,7.21
2019-01-14T11:15:57.746Z,7.41
2019-01-14T11:16:57.683Z,7.36
2019-01-14T11:17:57.577Z,7.41
2019-01-14T11:18:57.499Z,7.66
2019-01-14T11:19:57.409Z,7.66
2019-01-14T11:20:57.334Z,7.71
2019-01-14T11:21:57.258Z,7.69
2019-01-14T11:22:57.166Z,7.67
2019-01-14T11:23:57.065Z,7.55
2019-01-14T11:24:57.010Z,7.62
2019-01-14T11:25:56.905Z,7.71
2019-01-14T11:26:56.835Z,7.95
2019-01-14T11:27:56.742Z,8.13
2019-01-14T11:28:56.648Z,8.21
2019-01-14T11:29:56.561Z,8.37
2019-01-14T11:30:56.474Z,8.60
2019-01-14T11:31:56.411Z,8.55
2019-01-14T11:32:56.309Z,8.65
2019-01-14T11:33:56.222Z,8.68
2019-01-14T11:34:56.136Z,8.61
2019-01-14T11:35:56.054Z,8.49
2019-01-14T11:36:55.991Z,8.49
2019-01-14T11:37:55.903Z,8.39
2019-01-14T11:38:55.810Z,8.25
2019-01-14T11:39:55.726Z,8.20
2019-01-14T11:40:55.636Z,8.00
2019-01-14T11:41:55.563Z,7.86
2019-01-14T11:42:55.478Z,7.66
2019-01-14T11:43:55.394Z,7.44
2019-01-14T11:44:55.311Z,7.42
2019-01-14T11:45:55.223Z,7.16
2019-01-14T11:46:55.133Z,7.00
2019-01-14T11:47:55.067Z,6.94
2019-01-14T11:48:55.020Z,6.96
2019-01-14T11:49:54.880Z,6.81
2019-01-14T11:50:54.796Z,6.81
2019-01-14T11:51:54.704Z,6.71
2019-01-14T11:52:54.738Z,6.65
2019-01-14T11:53:54.535Z,6.86
2019-01-14T11:54:54.455Z,6.97
2019-01-14T11:55:54.372Z,7.18
2019-01-14T11:56:54.281Z,7.24
2019-01-14T11:57:54.221Z,7.47
2019-01-14T11:58:54.124Z,7.60
2019-01-14T11:59:54.031Z,7.67
2019-01-14T12:00:53.943Z,7.76
2019-01-14T12:01:53.864Z,7.66
2019-01-14T12:02:53.780Z,7.63
2019-01-14T12:03:53.703Z,7.70
2019-01-14T12:04:53.605Z,7.84
2019-01-14T12:05:53.522Z,7.95
2019-01-14T12:06:53.429Z,7.89
2019-01-14T12:07:53.349Z,8.04
2019-01-14T12:08:53.284Z,8.02
2019-01-14T12:09:53.186Z,8.02
2019-01-14T12:10:53.091Z,8.03
2019-01-14T12:11:53.020Z,8.04
2019-01-14T12:12:52.929Z,8.24
2019-01-14T12:13:52.859Z,8.43
2019-01-14T12:14:52.756Z,8.76
2019-01-14T12:15:52.667Z,8.63
2019-01-14T12:16:52.594Z,8.55
2019-01-14T12:17:52.510Z,8.55
2019-01-14T12:18:52.446Z,8.46
2019-01-14T12:19:52.339Z,8.50
2019-01-14T12:20:52.251Z,8.39
2019-01-14T12:21:52.165Z,8.52
2019-01-14T12:22:52.093Z,8.37
2019-01-14T12:23:52.013Z,8.18
2019-01-14T12:24:52.917Z,8.06
2019-01-14T12:25:51.825Z,8.00
2019-01-14T12:26:51.754Z,7.94
2019-01-14T12:27:51.660Z,7.77
2019-01-14T12:28:51.598Z,7.67
2019-01-14T12:29:51.486Z,7.54
2019-01-14T12:30:51.409Z,7.48
2019-01-14T12:31:51.325Z,7.42
2019-01-14T12:32:51.241Z,7.33
2019-01-14T12:33:51.186Z,7.34
2019-01-14T12:34:51.070Z,7.39
2019-01-14T12:35:50.981Z,7.41
2019-01-14T12:36:51.853Z,7.54
2019-01-14T12:37:50.815Z,7.52
2019-01-14T12:38:50.742Z,7.58
2019-01-14T12:39:50.655Z,7.63
2019-01-14T12:40:50.573Z,7.73
2019-01-14T12:41:51.112Z,7.82
2019-01-14T12:42:50.394Z,8.00
2019-01-14T12:43:50.303Z,8.02
2019-01-14T12:44:50.240Z,8.20
2019-01-14T12:45:50.135Z,8.10
2019-01-14T12:46:50.052Z,8.14
2019-01-14T12:47:49.977Z,8.06
2019-01-14T12:48:49.886Z,8.17
2019-01-14T12:49:49.810Z,8.10
2019-01-14T12:50:49.718Z,8.02
2019-01-14T12:51:49.627Z,7.95
2019-01-14T12:52:49.549Z,7.94
2019-01-14T12:53:49.467Z,7.91
2019-01-14T12:54:49.426Z,7.82
2019-01-14T12:55:49.295Z,7.73
2019-01-14T12:56:49.207Z,7.60
2019-01-14T12:57:49.152Z,7.51
2019-01-14T12:58:49.036Z,7.44
2019-01-14T12:59:48.962Z,7.36
2019-01-14T13:00:48.892Z,7.18
2019-01-14T13:01:48.782Z,6.33
2019-01-14T13:02:48.703Z,5.56
2019-01-14T13:03:48.619Z,5.15
2019-01-14T13:04:48.533Z,4.87
2019-01-14T13:05:48.461Z,4.62
2019-01-14T13:06:48.369Z,4.47
2019-01-14T13:07:48.277Z,4.50
2019-01-14T13:08:48.192Z,4.43
2019-01-14T13:09:48.101Z,4.38
2019-01-14T13:10:48.036Z,4.31
2019-01-14T13:11:47.935Z,4.28
2019-01-14T13:12:47.853Z,4.25
2019-01-14T13:13:47.761Z,4.28
2019-01-14T13:14:47.677Z,4.28
2019-01-14T13:15:47.607Z,4.38
2019-01-14T13:16:47.514Z,4.32
2019-01-14T13:17:47.423Z,4.43